Time;durP1;ratioP1;P1;durP2;ratioP2;P2;SDS_P1;SDS_P2;PMS_P1;PMS_P2;Temp;Humidity;BMP_temperature;BMP_pressure;BME280_temperature;BME280_humidity;BME280_pressure;Samples;Min_cycle;Max_cycle;Signal;HPM_P1;HPM_P2
2021/08/22 00:00:26;;;;;;;;;;;;;;;22.60;77.30;98841.34;5018279;28;20011;-78
2021/08/22 00:02:51;;;;;;;;;;;;;;;22.76;76.08;98841.69;5013682;28;19914;-80
2021/08/22 00:05:16;;;;;;;;;;;;;;;22.80;77.91;98843.09;5012795;28;19914;-79
2021/08/22 00:07:42;;;;;;;;;;;;;;;22.70;76.26;98837.81;5011692;28;19921;-80
2021/08/22 00:10:07;;;;;;;;;;;;;;;22.80;77.17;98843.09;5018052;28;19917;-79
2021/08/22 00:12:33;;;;;;;;;;;;;;;22.64;76.74;98837.50;5013626;28;19925;-79
2021/08/22 00:14:58;;;;;;;;;;;;;;;22.70;76.39;98845.69;5015142;28;19913;-80
2021/08/22 00:17:23;;;;;;;;;;;;;;;22.41;78.60;98842.06;4997959;28;19918;-79
2021/08/22 00:19:49;;;;;;;;;;;;;;;22.60;77.10;98836.09;5001153;28;19918;-80
2021/08/22 00:22:14;;;;;;;;;;;;;;;22.63;80.09;98836.66;4996979;28;19913;-78
2021/08/22 00:24:40;;;;;;;;;;;;;;;22.70;77.45;98837.81;5019797;28;19914;-78
2021/08/22 00:27:05;;;;;;;;;;;;;;;23.15;73.22;98831.41;5020624;28;20433;-79
2021/08/22 00:29:30;;;;;;;;;;;;;;;23.53;74.94;98835.09;5018031;28;19913;-79
2021/08/22 00:31:56;;;;;;;;;;;;;;;23.50;72.30;98824.84;4997674;28;19949;-79
2021/08/22 00:34:21;;;;;;;;;;;;;;;22.85;78.32;98845.34;5010864;28;19914;-79
2021/08/22 00:36:46;;;;;;;;;;;;;;;22.96;80.63;98848.69;5018160;28;19936;-80
2021/08/22 00:39:12;;;;;;;;;;;;;;;22.89;80.92;98852.81;5014066;28;19921;-80
2021/08/22 00:41:41;;;;;;;;;;;;;;;23.17;83.65;98837.34;5014646;28;19964;-80
2021/08/22 00:44:06;;;;;;;;;;;;;;;23.30;72.93;98840.56;5012272;28;20464;-80
2021/08/22 00:46:31;;;;;;;;;;;;;;;23.35;69.56;98843.63;5015165;28;19941;-78
2021/08/22 00:48:57;;;;;;;;;;;;;;;23.22;78.78;98843.03;4997030;28;19914;-79
2021/08/22 00:51:22;;;;;;;;;;;;;;;23.19;75.31;98835.41;4998463;28;19961;-80
2021/08/22 00:53:47;;;;;;;;;;;;;;;22.78;80.10;98839.78;5012286;28;19965;-80
2021/08/22 00:56:13;;;;;;;;;;;;;;;22.47;82.19;98831.88;5011522;28;19925;-79
2021/08/22 00:58:39;;;;;;;;;;;;;;;22.33;84.75;98842.69;5010543;28;19968;-79
2021/08/22 01:01:06;;;;;;;;;;;;;;;22.92;83.23;98842.06;4996782;28;19918;-79
2021/08/22 01:03:37;;;;;;;;;;;;;;;22.73;80.76;98841.97;5011540;28;20412;-79
2021/08/22 01:06:02;;;;;;;;;;;;;;;22.75;78.74;98835.63;5009921;28;20294;-79
2021/08/22 01:08:30;;;;;;;;;;;;;;;22.64;82.15;98832.25;5012196;28;19913;-79
2021/08/22 01:10:58;;;;;;;;;;;;;;;22.66;79.90;98832.94;4997425;28;19989;-79
2021/08/22 01:13:24;;;;;;;;;;;;;;;22.39;87.17;98823.81;5012222;28;19924;-80
2021/08/22 01:15:50;;;;;;;;;;;;;;;22.50;85.02;98821.13;5011369;28;19917;-80
2021/08/22 01:18:17;;;;;;;;;;;;;;;22.45;83.26;98820.69;5011555;28;19925;-80
2021/08/22 01:20:44;;;;;;;;;;;;;;;22.46;81.19;98822.31;5014168;28;19980;-80
2021/08/22 01:23:10;;;;;;;;;;;;;;;22.52;82.83;98819.19;5012683;28;19952;-80
2021/08/22 01:25:36;;;;;;;;;;;;;;;22.85;79.51;98814.66;5017787;28;19918;-79
2021/08/22 01:28:01;;;;;;;;;;;;;;;22.90;76.66;98804.59;5012977;28;19969;-79
2021/08/22 01:30:27;;;;;;;;;;;;;;;22.81;84.78;98810.66;5016348;28;19951;-79
2021/08/22 01:32:52;;;;;;;;;;;;;;;23.07;81.99;98818.91;5020676;28;19921;-80
2021/08/22 01:35:18;;;;;;;;;;;;;;;23.21;80.99;98809.00;5013199;28;19918;-80
2021/08/22 01:37:45;;;;;;;;;;;;;;;23.18;83.12;98810.13;5015174;28;20301;-80
2021/08/22 01:40:11;;;;;;;;;;;;;;;23.10;76.11;98812.56;5016619;28;20008;-80
2021/08/22 01:42:38;;;;;;;;;;;;;;;23.03;80.31;98821.94;5017211;28;19920;-79
2021/08/22 01:45:04;;;;;;;;;;;;;;;22.92;87.00;98825.47;4999817;28;19920;-80
2021/08/22 01:47:30;;;;;;;;;;;;;;;22.94;78.33;98823.53;5017897;28;19914;-80
2021/08/22 01:49:55;;;;;;;;;;;;;;;22.92;84.73;98826.31;5016870;28;19925;-79
2021/08/22 01:52:21;;;;;;;;;;;;;;;22.93;78.71;98830.59;5013014;28;19917;-80
2021/08/22 01:54:46;;;;;;;;;;;;;;;22.67;92.12;98831.97;5018398;28;20433;-79
2021/08/22 01:57:11;;;;;;;;;;;;;;;22.60;91.15;98831.66;5014662;28;19918;-80
2021/08/22 01:59:37;;;;;;;;;;;;;;;22.64;83.40;98837.50;5015479;28;19964;-81
2021/08/22 02:02:03;;;;;;;;;;;;;;;22.28;99.02;98847.47;4998153;28;19917;-82
2021/08/22 02:05:01;;;;;;;;;;;;;;;22.25;93.10;98853.00;5012157;28;19914;-81
2021/08/22 02:07:32;;;;;;;;;;;;;;;22.11;92.64;98852.31;5007679;28;19921;-81
2021/08/22 02:10:04;;;;;;;;;;;;;;;22.14;99.94;98859.91;5012541;28;20860;-81
2021/08/22 02:12:29;;;;;;;;;;;;;;;22.18;95.84;98857.06;4998257;28;19945;-81
2021/08/22 02:15:01;;;;;;;;;;;;;;;21.90;92.59;98860.13;5015014;28;19913;-80
2021/08/22 02:17:28;;;;;;;;;;;;;;;21.93;91.53;98854.63;4996162;28;19976;-80
2021/08/22 02:19:55;;;;;;;;;;;;;;;21.88;96.84;98861.22;5013735;28;19922;-81
2021/08/22 02:22:21;;;;;;;;;;;;;;;21.97;99.57;98859.66;5014502;28;19917;-80
2021/08/22 02:24:46;;;;;;;;;;;;;;;22.08;97.22;98851.72;5014869;28;19995;-79
2021/08/22 02:27:11;;;;;;;;;;;;;;;22.09;100.00;98854.22;5015415;28;19928;-80
2021/08/22 02:29:47;;;;;;;;;;;;;;;21.86;95.40;98861.34;5000626;28;19914;-80
2021/08/22 02:32:12;;;;;;;;;;;;;;;22.34;91.37;98852.22;5000112;28;19918;-81
2021/08/22 02:34:38;;;;;;;;;;;;;;;21.90;96.69;98860.13;4994881;28;20374;-81
2021/08/22 02:37:03;;;;;;;;;;;;;;;22.14;98.61;98851.22;5017838;28;19924;-81
2021/08/22 02:39:28;;;;;;;;;;;;;;;21.27;100.00;98862.50;5015901;28;19928;-83
2021/08/22 02:41:53;;;;;;;;;;;;;;;21.94;100.00;98850.25;5014893;28;19949;-82
2021/08/22 02:44:19;;;;;;;;;;;;;;;22.11;97.08;98854.09;5015414;28;19921;-82
2021/08/22 02:46:44;;;;;;;;;;;;;;;21.82;100.00;98859.09;5013080;28;19921;-83
2021/08/22 02:49:09;;;;;;;;;;;;;;;21.20;100.00;98858.69;5012845;28;19918;-82
2021/08/22 02:51:35;;;;;;;;;;;;;;;21.54;100.00;98858.69;5015164;28;19917;-83
2021/08/22 02:54:00;;;;;;;;;;;;;;;21.62;100.00;98856.28;4998209;28;20037;-82
2021/08/22 02:56:25;;;;;;;;;;;;;;;21.24;100.00;98849.66;5014125;28;19925;-81
2021/08/22 02:58:51;;;;;;;;;;;;;;;21.37;100.00;98859.13;5015183;28;19917;-80
2021/08/22 03:01:16;;;;;;;;;;;;;;;21.63;100.00;98847.47;5013123;28;19922;-81
2021/08/22 03:03:41;;;;;;;;;;;;;;;22.01;100.00;98840.91;5012691;28;20293;-81
2021/08/22 03:06:07;;;;;;;;;;;;;;;22.08;100.00;98844.69;5014772;28;19918;-81
2021/08/22 03:08:32;;;;;;;;;;;;;;;22.01;100.00;98840.91;5012688;28;19925;-81
2021/08/22 03:10:57;;;;;;;;;;;;;;;22.16;100.00;98844.06;4997998;28;19926;-82
2021/08/22 03:13:23;;;;;;;;;;;;;;;21.75;99.23;98842.19;5015349;28;19929;-82
2021/08/22 03:15:48;;;;;;;;;;;;;;;21.91;94.71;98835.56;5013095;28;19917;-82
2021/08/22 03:18:13;;;;;;;;;;;;;;;21.77;96.76;98824.56;5012905;28;19918;-82
2021/08/22 03:20:39;;;;;;;;;;;;;;;21.93;100.00;98827.59;5013255;28;20527;-82
2021/08/22 03:23:04;;;;;;;;;;;;;;;21.62;100.00;98830.09;5015350;28;19921;-82
2021/08/22 03:25:30;;;;;;;;;;;;;;;21.94;100.00;98824.03;5015005;28;19918;-82
2021/08/22 03:27:55;;;;;;;;;;;;;;;22.16;100.00;98817.00;5012760;28;19917;-81
2021/08/22 03:30:20;;;;;;;;;;;;;;;21.95;100.00;98825.69;5016662;28;19918;-81
2021/08/22 03:32:46;;;;;;;;;;;;;;;22.13;100.00;98825.97;5010542;28;20969;-81
2021/08/22 03:35:11;;;;;;;;;;;;;;;22.11;100.00;98831.31;5012663;28;19924;-81
2021/08/22 03:37:36;;;;;;;;;;;;;;;22.16;94.24;98823.06;5010449;28;19972;-81
2021/08/22 03:40:02;;;;;;;;;;;;;;;22.04;100.00;98819.66;5013282;28;19922;-81
2021/08/22 03:42:27;;;;;;;;;;;;;;;22.02;99.42;98826.00;5012661;28;19972;-81
2021/08/22 03:44:53;;;;;;;;;;;;;;;22.10;93.26;98824.41;5013067;28;20481;-81
2021/08/22 03:47:18;;;;;;;;;;;;;;;21.53;100.00;98828.22;5012541;28;19914;-81
2021/08/22 03:49:43;;;;;;;;;;;;;;;21.64;100.00;98827.31;5014756;28;19922;-81
2021/08/22 03:52:09;;;;;;;;;;;;;;;21.36;100.00;98819.03;5011152;28;19925;-82
2021/08/22 03:54:34;;;;;;;;;;;;;;;21.85;100.00;98824.75;4995547;28;19918;-81
2021/08/22 03:56:59;;;;;;;;;;;;;;;21.89;96.34;98823.53;5012381;28;20381;-81
2021/08/22 03:59:25;;;;;;;;;;;;;;;21.91;100.00;98829.50;4994508;28;19961;-82
2021/08/22 04:01:50;;;;;;;;;;;;;;;21.93;93.82;98817.91;4994185;28;19997;-81
2021/08/22 04:04:15;;;;;;;;;;;;;;;21.94;98.69;98818.78;5011010;28;20440;-80
2021/08/22 04:06:48;;;;;;;;;;;;;;;21.98;94.87;98820.16;5011131;28;19917;-81
2021/08/22 04:09:13;;;;;;;;;;;;;;;21.84;93.71;98820.47;4997146;28;20499;-80
2021/08/22 04:11:39;;;;;;;;;;;;;;;21.35;100.00;98821.75;4997715;28;19922;-80
2021/08/22 04:14:04;;;;;;;;;;;;;;;21.35;100.00;98821.75;5012468;28;19941;-80
2021/08/22 04:16:29;;;;;;;;;;;;;;;21.86;100.00;98819.38;4996857;28;20899;-80
2021/08/22 04:18:54;;;;;;;;;;;;;;;21.81;100.00;98824.19;5012349;28;19917;-80
2021/08/22 04:21:20;;;;;;;;;;;;;;;21.84;100.00;98823.09;5012048;28;19976;-81
2021/08/22 04:23:45;;;;;;;;;;;;;;;21.63;100.00;98821.25;5013853;28;19921;-81
2021/08/22 04:26:11;;;;;;;;;;;;;;;21.69;100.00;98815.53;5012549;28;20008;-81
2021/08/22 04:28:36;;;;;;;;;;;;;;;21.69;100.00;98825.16;5017125;28;19985;-81
2021/08/22 04:31:01;;;;;;;;;;;;;;;21.60;100.00;98824.13;5012972;28;19920;-81
2021/08/22 04:33:28;;;;;;;;;;;;;;;21.80;100.00;98822.50;5012798;28;19913;-81
2021/08/22 04:35:54;;;;;;;;;;;;;;;21.80;100.00;98816.44;5010450;28;19972;-81
2021/08/22 04:38:19;;;;;;;;;;;;;;;21.56;100.00;98820.09;5010372;28;19917;-81
2021/08/22 04:40:44;;;;;;;;;;;;;;;21.78;100.00;98816.56;5012408;28;19922;-80
2021/08/22 04:43:10;;;;;;;;;;;;;;;21.62;100.00;98824.00;5012112;28;19949;-80
2021/08/22 04:45:35;;;;;;;;;;;;;;;21.46;100.00;98821.75;5010176;28;19948;-80
2021/08/22 04:48:00;;;;;;;;;;;;;;;21.15;100.00;98828.59;5012818;28;19920;-80
2021/08/22 04:50:25;;;;;;;;;;;;;;;20.67;100.00;98829.66;5010999;28;20024;-80
2021/08/22 04:52:51;;;;;;;;;;;;;;;20.88;100.00;98833.22;5012645;28;19948;-80
2021/08/22 04:55:16;;;;;;;;;;;;;;;20.77;100.00;98837.63;5009261;28;20243;-79
2021/08/22 04:57:41;;;;;;;;;;;;;;;21.00;100.00;98835.84;5011971;28;19932;-80
2021/08/22 05:00:07;;;;;;;;;;;;;;;20.83;100.00;98837.97;4996831;28;19921;-81
2021/08/22 05:02:32;;;;;;;;;;;;;;;21.27;100.00;98838.09;4997188;28;20062;-80
2021/08/22 05:04:58;;;;;;;;;;;;;;;20.96;100.00;98850.97;4996811;28;19917;-80
2021/08/22 05:07:23;;;;;;;;;;;;;;;21.42;100.00;98849.19;5012064;28;19917;-80
2021/08/22 05:09:48;;;;;;;;;;;;;;;21.26;100.00;98847.75;5013712;28;19920;-80
2021/08/22 05:12:14;;;;;;;;;;;;;;;20.84;100.00;98863.19;5011974;28;20453;-79
2021/08/22 05:14:39;;;;;;;;;;;;;;;21.02;100.00;98862.75;5012365;28;19918;-80
2021/08/22 05:17:04;;;;;;;;;;;;;;;21.21;100.00;98864.75;5013849;28;19921;-80
2021/08/22 05:19:30;;;;;;;;;;;;;;;21.22;100.00;98869.06;5013652;28;19921;-80
2021/08/22 05:21:55;;;;;;;;;;;;;;;21.01;100.00;98871.56;5011864;28;19917;-80
2021/08/22 05:24:21;;;;;;;;;;;;;;;20.85;100.00;98872.72;5014994;28;21072;-80
2021/08/22 05:26:46;;;;;;;;;;;;;;;20.60;100.00;98880.78;5011554;28;19918;-80
2021/08/22 05:29:12;;;;;;;;;;;;;;;20.91;100.00;98881.06;5009117;28;19918;-80
2021/08/22 05:31:37;;;;;;;;;;;;;;;21.19;100.00;98879.75;4993971;28;19917;-80
2021/08/22 05:34:02;;;;;;;;;;;;;;;21.35;100.00;98879.38;4994945;28;19922;-80
2021/08/22 05:36:28;;;;;;;;;;;;;;;21.45;100.00;98878.56;5015624;28;20352;-79
2021/08/22 05:38:53;;;;;;;;;;;;;;;21.38;100.00;98882.59;5011553;28;19928;-80
2021/08/22 05:41:19;;;;;;;;;;;;;;;21.16;100.00;98886.06;5011701;28;20009;-79
2021/08/22 05:43:44;;;;;;;;;;;;;;;21.02;100.00;98889.75;5012741;28;20566;-79
2021/08/22 05:46:10;;;;;;;;;;;;;;;20.50;100.00;98898.06;5009580;28;19917;-77
2021/08/22 05:48:35;;;;;;;;;;;;;;;20.57;100.00;98896.69;4995033;28;20409;-78
2021/08/22 05:51:00;;;;;;;;;;;;;;;20.99;100.00;98895.22;5011440;28;19918;-78
2021/08/22 05:53:28;;;;;;;;;;;;;;;19.87;100.00;98902.69;5013346;28;19917;-79
2021/08/22 05:55:53;;;;;;;;;;;;;;;20.60;100.00;98899.09;5012825;28;19924;-78
2021/08/22 05:58:18;;;;;;;;;;;;;;;20.50;100.00;98913.75;5012477;28;19922;-79
2021/08/22 06:00:44;;;;;;;;;;;;;;;20.42;100.00;98907.31;5017435;28;20393;-79
2021/08/22 06:03:09;;;;;;;;;;;;;;;20.61;100.00;98908.59;5009315;28;19918;-80
2021/08/22 06:05:35;;;;;;;;;;;;;;;19.93;100.00;98915.28;4995222;28;19924;-79
2021/08/22 06:08:00;;;;;;;;;;;;;;;20.40;100.00;98914.44;4997856;28;19918;-78
2021/08/22 06:10:26;;;;;;;;;;;;;;;20.95;100.00;98911.28;5014004;28;19918;-79
2021/08/22 06:12:52;;;;;;;;;;;;;;;20.45;100.00;98911.50;5014632;28;19948;-79
2021/08/22 06:15:18;;;;;;;;;;;;;;;20.74;100.00;98917.19;5000808;28;19918;-79
2021/08/22 06:17:43;;;;;;;;;;;;;;;20.29;100.00;98918.81;4997736;28;20301;-78
2021/08/22 06:20:09;;;;;;;;;;;;;;;20.18;100.00;98920.41;4991426;28;19922;-78
2021/08/22 06:22:34;;;;;;;;;;;;;;;20.08;100.00;98921.22;4997270;28;19917;-77
2021/08/22 06:24:59;;;;;;;;;;;;;;;20.46;100.00;98924.47;5017278;28;20008;-78
2021/08/22 06:27:25;;;;;;;;;;;;;;;20.38;100.00;98926.81;5014087;28;19925;-78
2021/08/22 06:29:50;;;;;;;;;;;;;;;20.42;100.00;98927.44;4997767;28;20025;-77
2021/08/22 06:32:15;;;;;;;;;;;;;;;21.10;100.00;98929.28;5014327;28;19918;-78
2021/08/22 06:34:41;;;;;;;;;;;;;;;20.24;100.00;98932.22;5016252;28;19956;-77
2021/08/22 06:37:06;;;;;;;;;;;;;;;20.54;100.00;98936.13;5012108;28;20032;-78
2021/08/22 06:39:32;;;;;;;;;;;;;;;20.20;100.00;98941.22;5013208;28;19922;-78
2021/08/22 06:41:58;;;;;;;;;;;;;;;20.60;100.00;98936.56;5013362;28;19918;-77
2021/08/22 06:44:23;;;;;;;;;;;;;;;20.32;100.00;98942.09;5014060;28;19918;-78
2021/08/22 06:46:48;;;;;;;;;;;;;;;20.54;100.00;98936.13;5012979;28;19941;-78
2021/08/22 06:49:14;;;;;;;;;;;;;;;20.75;100.00;98934.56;5013851;28;19925;-78
2021/08/22 06:51:40;;;;;;;;;;;;;;;20.76;100.00;98938.88;5012259;28;20816;-78
2021/08/22 06:54:05;;;;;;;;;;;;;;;20.54;100.00;98938.75;5013874;28;20373;-78
2021/08/22 06:56:31;;;;;;;;;;;;;;;20.96;100.00;98941.75;4993826;28;20005;-78
2021/08/22 06:58:56;;;;;;;;;;;;;;;21.03;100.00;98942.97;5011921;28;19930;-78
2021/08/22 07:01:22;;;;;;;;;;;;;;;21.11;100.00;98937.97;5011877;28;19922;-78
2021/08/22 07:03:47;;;;;;;;;;;;;;;20.92;100.00;98941.16;5012332;28;19981;-78
2021/08/22 07:06:12;;;;;;;;;;;;;;;21.24;100.00;98941.31;4997338;28;19918;-79
2021/08/22 07:08:38;;;;;;;;;;;;;;;21.01;100.00;98939.63;5013131;28;19917;-78
2021/08/22 07:11:03;;;;;;;;;;;;;;;20.58;100.00;98942.84;4995282;28;19926;-78
2021/08/22 07:13:28;;;;;;;;;;;;;;;21.08;100.00;98943.44;5012668;28;19925;-78
2021/08/22 07:15:54;;;;;;;;;;;;;;;21.99;100.00;98937.22;5010228;28;19914;-78
2021/08/22 07:18:19;;;;;;;;;;;;;;;22.05;100.00;98941.97;5009139;28;19914;-78
2021/08/22 07:20:44;;;;;;;;;;;;;;;22.85;100.00;98940.69;5008517;28;19936;-78
2021/08/22 07:23:10;;;;;;;;;;;;;;;21.69;100.00;98936.09;4994095;28;20443;-78
2021/08/22 07:25:35;;;;;;;;;;;;;;;21.95;100.00;98934.97;4996677;28;19921;-80
2021/08/22 07:28:00;;;;;;;;;;;;;;;21.61;100.00;98938.47;5009652;28;19917;-78
2021/08/22 07:30:26;;;;;;;;;;;;;;;20.56;100.00;98942.09;5007888;28;19972;-78
2021/08/22 07:32:52;;;;;;;;;;;;;;;21.50;100.00;98928.00;4994994;28;20002;-78
2021/08/22 07:35:18;;;;;;;;;;;;;;;21.27;100.00;98943.69;5007106;28;19960;-78
2021/08/22 07:37:43;;;;;;;;;;;;;;;21.08;100.00;98943.44;4996104;28;20021;-78
2021/08/22 07:40:08;;;;;;;;;;;;;;;21.26;100.00;98936.78;4995967;28;19937;-78
2021/08/22 07:42:34;;;;;;;;;;;;;;;22.07;100.00;98934.81;5008058;28;19918;-78
2021/08/22 07:44:59;;;;;;;;;;;;;;;21.28;100.00;98940.13;5010849;28;20012;-78
2021/08/22 07:47:25;;;;;;;;;;;;;;;21.97;100.00;98944.38;4994657;28;20505;-78
2021/08/22 07:49:50;;;;;;;;;;;;;;;21.77;100.00;98947.75;5008842;28;19917;-78
2021/08/22 07:52:15;;;;;;;;;;;;;;;22.27;100.00;98950.75;4992496;28;19921;-78
2021/08/22 07:54:41;;;;;;;;;;;;;;;21.78;100.00;98959.91;4992420;28;19968;-78
2021/08/22 07:57:06;;;;;;;;;;;;;;;21.62;100.00;98955.88;4992215;28;19924;-78
2021/08/22 07:59:31;;;;;;;;;;;;;;;22.25;100.00;98963.16;5009101;28;20345;-78
2021/08/22 08:01:57;;;;;;;;;;;;;;;23.15;100.00;98954.88;4995008;28;19918;-78
2021/08/22 08:04:22;;;;;;;;;;;;;;;22.30;100.00;98955.75;5010034;28;20891;-78
2021/08/22 08:06:48;;;;;;;;;;;;;;;23.70;100.00;98960.63;5012093;28;19945;-78
2021/08/22 08:09:13;;;;;;;;;;;;;;;23.24;100.00;98961.13;5013796;28;19996;-78
2021/08/22 08:11:38;;;;;;;;;;;;;;;22.37;100.00;98962.16;5009818;28;19929;-78
2021/08/22 08:14:04;;;;;;;;;;;;;;;22.78;100.00;98963.16;5011694;28;19917;-78
2021/08/22 08:16:29;;;;;;;;;;;;;;;23.28;100.00;98963.34;5011115;28;19972;-77
2021/08/22 08:18:55;;;;;;;;;;;;;;;22.87;100.00;98970.28;5000548;28;20396;-77
2021/08/22 08:21:20;;;;;;;;;;;;;;;22.60;100.00;98964.69;4994911;28;19922;-78
2021/08/22 08:23:45;;;;;;;;;;;;;;;23.34;100.00;98965.47;5012675;28;19921;-78
2021/08/22 08:26:11;;;;;;;;;;;;;;;23.79;100.00;98964.31;5012925;28;19917;-78
2021/08/22 08:28:36;;;;;;;;;;;;;;;23.14;100.00;98967.16;5010587;28;19924;-78
2021/08/22 08:31:02;;;;;;;;;;;;;;;23.79;100.00;98967.75;4995785;28;19924;-78
2021/08/22 08:33:27;;;;;;;;;;;;;;;23.86;100.00;98969.84;4996009;28;19917;-78
2021/08/22 08:35:52;;;;;;;;;;;;;;;24.91;91.23;98961.34;5010165;28;19917;-78
2021/08/22 08:38:18;;;;;;;;;;;;;;;23.99;94.24;98975.69;4997711;28;19918;-78
2021/08/22 08:40:43;;;;;;;;;;;;;;;23.26;100.00;98986.31;5009950;28;20857;-78
2021/08/22 08:43:11;;;;;;;;;;;;;;;24.16;96.19;98969.78;5012834;28;19917;-77
2021/08/22 08:45:44;;;;;;;;;;;;;;;25.64;89.93;98978.19;5010869;28;19918;-79
2021/08/22 08:48:10;;;;;;;;;;;;;;;25.53;82.95;98965.19;4996652;28;19914;-78
2021/08/22 08:50:36;;;;;;;;;;;;;;;25.60;86.63;98976.00;5011128;28;19917;-78
2021/08/22 08:53:03;;;;;;;;;;;;;;;25.03;82.03;98974.19;4996790;28;19918;-78
2021/08/22 08:55:31;;;;;;;;;;;;;;;24.27;90.38;98975.84;5013223;28;19920;-78
2021/08/22 08:57:57;;;;;;;;;;;;;;;25.56;82.23;98964.06;4997226;28;19944;-78
2021/08/22 09:00:27;;;;;;;;;;;;;;;23.37;88.91;98980.97;5011055;28;19928;-78
2021/08/22 09:02:52;;;;;;;;;;;;;;;23.90;95.17;98974.72;5014320;28;19918;-78
2021/08/22 09:05:25;;;;;;;;;;;;;;;25.32;88.15;98978.59;5011890;28;19914;-78
2021/08/22 09:08:09;;;;;;;;;;;;;;;25.66;80.35;98981.53;4994115;28;19924;-78
2021/08/22 09:10:46;;;;;;;;;;;;;;;22.90;96.10;98991.06;4996987;28;19944;-78
2021/08/22 09:13:30;;;;;;;;;;;;;;;23.25;91.74;98982.03;4996938;28;19924;-77
2021/08/22 09:15:55;;;;;;;;;;;;;;;24.09;93.32;98987.06;4994612;28;19979;-78
2021/08/22 09:18:41;;;;;;;;;;;;;;;25.43;80.08;98991.59;5009754;28;20228;-78
2021/08/22 09:21:10;;;;;;;;;;;;;;;25.54;84.31;98981.84;4993180;28;19926;-78
2021/08/22 09:23:54;;;;;;;;;;;;;;;25.45;82.67;98979.13;4999262;28;19918;-78
2021/08/22 09:26:35;;;;;;;;;;;;;;;25.76;77.93;98980.63;4995893;28;19941;-78
2021/08/22 09:29:23;;;;;;;;;;;;;;;25.61;78.55;98975.84;4995671;28;20522;-78
2021/08/22 09:32:07;;;;;;;;;;;;;;;25.72;79.99;98964.25;4996037;28;19925;-78
2021/08/22 09:34:42;;;;;;;;;;;;;;;25.83;76.32;98977.25;5010716;28;19984;-78
2021/08/22 09:37:07;;;;;;;;;;;;;;;26.15;77.36;98976.00;5012053;28;19956;-78
2021/08/22 09:39:35;;;;;;;;;;;;;;;23.99;85.02;98979.16;4996391;28;19980;-78
2021/08/22 09:42:19;;;;;;;;;;;;;;;25.18;82.22;98971.09;4995866;28;19918;-78
2021/08/22 09:45:04;;;;;;;;;;;;;;;25.97;80.17;98967.22;4995803;28;19914;-78
2021/08/22 09:47:48;;;;;;;;;;;;;;;25.97;76.47;98969.84;5015334;28;20013;-78
2021/08/22 09:50:13;;;;;;;;;;;;;;;24.41;84.78;98976.31;5001535;28;19960;-78
2021/08/22 09:52:58;;;;;;;;;;;;;;;22.95;91.27;98983.63;5001138;28;19956;-77
2021/08/22 09:55:32;;;;;;;;;;;;;;;24.91;84.08;98974.50;5002347;28;19918;-78
2021/08/22 09:57:57;;;;;;;;;;;;;;;24.28;81.75;98982.81;5001757;28;19924;-78
2021/08/22 10:00:29;;;;;;;;;;;;;;;25.15;82.97;98974.03;5000736;28;19922;-78
2021/08/22 10:02:55;;;;;;;;;;;;;;;25.98;78.25;98971.50;5016572;28;20028;-78
2021/08/22 10:05:30;;;;;;;;;;;;;;;25.90;76.80;98976.72;5002035;28;20409;-78
2021/08/22 10:08:01;;;;;;;;;;;;;;;24.94;71.86;98972.41;5013497;28;19932;-78
2021/08/22 10:10:50;;;;;;;;;;;;;;;26.43;76.32;98970.66;5020482;28;20368;-77
2021/08/22 10:13:16;;;;;;;;;;;;;;;26.58;70.68;98965.69;5002397;28;19924;-77
2021/08/22 10:15:42;;;;;;;;;;;;;;;24.86;75.56;98972.31;5016804;28;19917;-77
2021/08/22 10:18:07;;;;;;;;;;;;;;;25.52;73.85;98962.69;5013360;28;19952;-78
2021/08/22 10:20:42;;;;;;;;;;;;;;;26.42;73.40;98961.06;5014689;28;20495;-78
2021/08/22 10:23:32;;;;;;;;;;;;;;;25.24;77.67;98973.22;5014831;28;19918;-78
2021/08/22 10:25:57;;;;;;;;;;;;;;;25.30;81.66;98970.00;5008552;28;19909;-78
2021/08/22 10:28:41;;;;;;;;;;;;;;;25.54;72.72;98955.47;5013848;28;19918;-78
2021/08/22 10:31:07;;;;;;;;;;;;;;;24.06;79.90;98963.66;5014020;28;19968;-77
2021/08/22 10:33:32;;;;;;;;;;;;;;;25.52;83.26;98960.06;5018663;28;19945;-78
2021/08/22 10:36:16;;;;;;;;;;;;;;;24.92;77.07;98952.47;5013449;28;19925;-77
2021/08/22 10:38:41;;;;;;;;;;;;;;;25.21;76.03;98957.69;5001974;28;20708;-77
2021/08/22 10:41:09;;;;;;;;;;;;;;;25.92;73.50;98953.66;5011824;28;20025;-76
2021/08/22 10:43:36;;;;;;;;;;;;;;;24.67;82.85;98951.25;5012765;28;20392;-76
2021/08/22 10:46:01;;;;;;;;;;;;;;;26.83;71.11;98953.50;5010510;28;19964;-77
2021/08/22 10:48:27;;;;;;;;;;;;;;;26.66;72.28;98957.81;5009768;28;19917;-76
2021/08/22 10:51:04;;;;;;;;;;;;;;;25.05;79.73;98956.44;5012024;28;19952;-77
2021/08/22 10:53:30;;;;;;;;;;;;;;;26.73;71.96;98958.03;4995612;28;19922;-77
2021/08/22 10:55:56;;;;;;;;;;;;;;;25.83;66.16;98961.44;4993519;28;19921;-77
2021/08/22 10:58:51;;;;;;;;;;;;;;;25.83;73.40;98964.06;5010277;28;19924;-77
2021/08/22 11:01:17;;;;;;;;;;;;;;;24.80;77.43;98959.69;4994240;28;19936;-77
2021/08/22 11:03:42;;;;;;;;;;;;;;;25.26;73.38;98963.34;5009287;28;20377;-77
2021/08/22 11:06:08;;;;;;;;;;;;;;;25.97;74.39;98968.03;5011696;28;19917;-77
2021/08/22 11:08:33;;;;;;;;;;;;;;;25.14;75.98;98970.56;5009977;28;19917;-78
2021/08/22 11:11:04;;;;;;;;;;;;;;;25.50;77.85;98965.50;4995721;28;19933;-76
2021/08/22 11:13:36;;;;;;;;;;;;;;;26.82;73.69;98968.53;5009532;28;19929;-76
2021/08/22 11:16:02;;;;;;;;;;;;;;;26.10;70.50;98972.97;5007936;28;20008;-76
2021/08/22 11:18:27;;;;;;;;;;;;;;;26.82;67.69;98972.97;5011654;28;19973;-77
2021/08/22 11:20:53;;;;;;;;;;;;;;;26.83;64.84;98964.09;4997963;28;19957;-77
2021/08/22 11:23:18;;;;;;;;;;;;;;;27.46;68.33;98973.56;5012696;28;19922;-77
2021/08/22 11:25:48;;;;;;;;;;;;;;;26.77;61.46;98976.06;5013108;28;20269;-77
2021/08/22 11:28:14;;;;;;;;;;;;;;;26.59;76.56;98973.44;5004086;28;20329;-77
2021/08/22 11:30:40;;;;;;;;;;;;;;;27.76;65.83;98972.22;5009665;28;19918;-77
2021/08/22 11:33:06;;;;;;;;;;;;;;;27.67;65.59;98973.19;5011735;28;19959;-77
2021/08/22 11:35:34;;;;;;;;;;;;;;;26.80;67.61;98961.72;5010083;28;20393;-76
2021/08/22 11:38:00;;;;;;;;;;;;;;;25.92;71.57;98958.94;5007780;28;19930;-77
2021/08/22 11:40:26;;;;;;;;;;;;;;;26.52;68.45;98955.72;5011146;28;19921;-77
2021/08/22 11:42:56;;;;;;;;;;;;;;;26.08;73.06;98954.63;5013699;28;19918;-77
2021/08/22 11:45:23;;;;;;;;;;;;;;;26.97;72.47;98954.75;5011863;28;19953;-77
2021/08/22 11:47:49;;;;;;;;;;;;;;;27.40;66.04;98945.94;5013375;28;19993;-76
2021/08/22 11:50:14;;;;;;;;;;;;;;;27.53;67.55;98945.53;5008838;28;20004;-77
2021/08/22 11:52:43;;;;;;;;;;;;;;;27.74;69.52;98943.28;4987154;28;20794;-77
2021/08/22 11:55:09;;;;;;;;;;;;;;;27.79;71.14;98939.31;5011166;28;19914;-78
2021/08/22 11:57:34;;;;;;;;;;;;;;;27.09;76.49;98943.75;5011872;28;19932;-77
2021/08/22 12:00:03;;;;;;;;;;;;;;;26.55;66.63;98940.44;4993616;28;19916;-77
2021/08/22 12:02:28;;;;;;;;;;;;;;;26.87;66.69;98934.56;4992878;28;19921;-77
2021/08/22 12:05:11;;;;;;;;;;;;;;;27.89;72.08;98927.63;4994880;28;20300;-77
2021/08/22 12:07:37;;;;;;;;;;;;;;;27.52;61.02;98934.09;4993556;28;19917;-78
2021/08/22 12:10:02;;;;;;;;;;;;;;;27.48;67.04;98932.78;5009249;28;19941;-77
2021/08/22 12:12:28;;;;;;;;;;;;;;;27.99;68.67;98929.31;5011082;28;20004;-77
2021/08/22 12:14:53;;;;;;;;;;;;;;;27.81;63.07;98926.75;5009891;28;20848;-77
2021/08/22 12:17:23;;;;;;;;;;;;;;;28.19;63.95;98935.97;5011141;28;19947;-76
2021/08/22 12:19:48;;;;;;;;;;;;;;;27.66;62.14;98937.13;5010388;28;20004;-77
2021/08/22 12:22:13;;;;;;;;;;;;;;;28.23;64.05;98934.63;5011351;28;20338;-77
2021/08/22 12:24:46;;;;;;;;;;;;;;;27.20;62.11;98939.19;5010632;28;19949;-77
2021/08/22 12:27:11;;;;;;;;;;;;;;;29.25;62.85;98927.13;4994729;28;19926;-78
2021/08/22 12:29:38;;;;;;;;;;;;;;;29.26;58.63;98933.25;5010722;28;19924;-78
2021/08/22 12:32:11;;;;;;;;;;;;;;;29.97;56.86;98927.00;4995057;28;19940;-78
2021/08/22 12:34:37;;;;;;;;;;;;;;;29.96;56.01;98929.81;5013220;28;20328;-78
2021/08/22 12:37:17;;;;;;;;;;;;;;;30.49;54.55;98929.97;5011065;28;20170;-78
2021/08/22 12:39:42;;;;;;;;;;;;;;;30.29;51.90;98934.94;5011543;28;19922;-77
2021/08/22 12:42:07;;;;;;;;;;;;;;;26.38;58.28;98933.31;5013088;28;20035;-78